Time;durP1;ratioP1;P1;durP2;ratioP2;P2;SDS_P1;SDS_P2;PMS_P1;PMS_P2;Temp;Humidity;BMP_temperature;BMP_pressure;BME280_temperature;BME280_humidity;BME280_pressure;Samples;Min_cycle;Max_cycle;Signal;HPM_P1;HPM_P2
2022/05/01 00:01:36;;;;;;;31.50;26.37;;;;;;;9.53;100.00;98591.56;4977220;28;20215;-71
2022/05/01 00:04:03;;;;;;;30.23;26.47;;;;;;;9.47;100.00;98587.91;4978011;28;20214;-71
2022/05/01 00:06:31;;;;;;;31.80;28.40;;;;;;;9.48;100.00;98586.03;4977145;28;20204;-70
2022/05/01 00:08:58;;;;;;;33.03;27.73;;;;;;;9.55;100.00;98582.38;4977528;28;20275;-71
2022/05/01 00:11:25;;;;;;;33.37;28.37;;;;;;;9.48;100.00;98581.56;4975379;28;20204;-70
2022/05/01 00:13:52;;;;;;;35.07;29.80;;;;;;;9.45;100.00;98589.91;4977524;28;20659;-70
2022/05/01 00:16:18;;;;;;;34.87;28.87;;;;;;;9.38;100.00;98582.94;4976820;28;20215;-70
2022/05/01 00:18:45;;;;;;;34.37;29.87;;;;;;;9.26;100.00;98579.22;4977637;28;20586;-71
2022/05/01 00:21:12;;;;;;;36.63;30.57;;;;;;;9.23;100.00;98579.63;4976629;28;20224;-71
2022/05/01 00:23:39;;;;;;;37.10;29.80;;;;;;;9.27;100.00;98575.53;4977669;28;20215;-70
2022/05/01 00:26:07;;;;;;;39.57;31.00;;;;;;;9.30;100.00;98576.00;4976718;28;20204;-71
2022/05/01 00:28:36;;;;;;;43.13;31.80;;;;;;;9.34;100.00;98579.06;4975712;28;20228;-70
2022/05/01 00:31:05;;;;;;;36.93;29.60;;;;;;;9.34;100.00;98571.09;4975626;28;20219;-70
2022/05/01 00:36:28;;;;;;;38.43;29.27;;;;;;;9.35;100.00;98578.03;4976289;28;20251;-70
2022/05/01 00:39:02;;;;;;;36.07;30.50;;;;;;;9.35;100.00;98576.22;4977298;28;20299;-70
2022/05/01 00:41:39;;;;;;;34.10;29.10;;;;;;;9.38;100.00;98575.81;4976591;28;20215;-70
2022/05/01 00:44:13;;;;;;;36.37;30.53;;;;;;;9.32;100.00;98573.13;4976539;28;20224;-70
2022/05/01 00:46:43;;;;;;;37.03;31.20;;;;;;;9.35;100.00;98578.03;4976338;28;20218;-71
2022/05/01 00:49:32;;;;;;;37.47;29.00;;;;;;;9.40;100.00;98576.44;4976849;28;20215;-71
2022/05/01 00:52:07;;;;;;;36.83;28.87;;;;;;;9.49;100.00;98575.25;4976116;28;20220;-71
2022/05/01 00:54:37;;;;;;;40.33;30.20;;;;;;;9.41;100.00;98580.72;4975937;28;20188;-71
2022/05/01 00:57:05;;;;;;;36.37;29.07;;;;;;;9.45;100.00;98570.50;4975830;28;20737;-70
2022/05/01 00:59:32;;;;;;;32.80;27.80;;;;;;;9.49;100.00;98572.59;4976086;28;20238;-71
2022/05/01 01:01:59;;;;;;;38.80;30.00;;;;;;;9.53;100.00;98575.66;4976020;28;20215;-70
2022/05/01 01:04:26;;;;;;;35.63;29.33;;;;;;;9.45;100.00;98571.34;4975003;28;20215;-70
2022/05/01 01:06:53;;;;;;;41.47;29.43;;;;;;;9.42;100.00;98568.28;4976293;28;20296;-70
2022/05/01 01:09:19;;;;;;;35.73;29.30;;;;;;;9.40;100.00;98575.59;4975922;28;20208;-71
2022/05/01 01:11:46;;;;;;;36.70;29.83;;;;;;;9.39;100.00;98569.50;4976804;28;20215;-71
2022/05/01 01:14:15;;;;;;;35.63;29.63;;;;;;;9.41;100.00;98572.75;4975403;28;20216;-70
2022/05/01 01:16:44;;;;;;;35.43;29.03;;;;;;;9.33;100.00;98564.16;4976161;28;20213;-70
2022/05/01 01:19:10;;;;;;;34.50;28.13;;;;;;;9.36;100.00;98569.03;4976342;28;20730;-70
2022/05/01 01:21:37;;;;;;;34.97;29.53;;;;;;;9.36;100.00;98569.03;4975777;28;20207;-70
2022/05/01 01:24:08;;;;;;;35.60;28.77;;;;;;;9.36;100.00;98561.91;4976527;28;20215;-70
2022/05/01 01:26:35;;;;;;;36.23;28.30;;;;;;;9.41;100.00;98561.34;4975614;28;20215;-70
2022/05/01 01:31:40;;;;;;;32.93;27.90;;;;;;;9.46;100.00;98574.81;4974178;28;20226;-71
2022/05/01 01:31:49;;;;;;;33.17;28.20;;;;;;;9.41;100.00;98566.66;4974945;28;20210;-72
2022/05/01 01:34:17;;;;;;;36.43;28.73;;;;;;;9.42;100.00;98561.09;4976285;28;20239;-70
2022/05/01 01:36:47;;;;;;;35.47;27.57;;;;;;;9.64;99.02;98567.13;4958369;28;20219;-70
2022/05/01 01:39:18;;;;;;;32.17;26.57;;;;;;;9.43;99.80;98559.28;4975170;28;20208;-71
2022/05/01 01:41:47;;;;;;;35.23;28.50;;;;;;;9.59;98.38;98553.63;4976131;28;20193;-71
2022/05/01 01:44:14;;;;;;;34.03;26.40;;;;;;;9.49;99.22;98561.13;4973642;28;20671;-71
2022/05/01 01:46:41;;;;;;;37.17;28.20;;;;;;;9.31;100.00;98550.25;4974002;28;20236;-70
2022/05/01 01:49:10;;;;;;;35.73;28.07;;;;;;;9.36;99.85;98561.91;4974065;28;20567;-71
2022/05/01 01:51:37;;;;;;;33.33;27.40;;;;;;;9.38;98.83;98554.59;4975284;28;20208;-71
2022/05/01 01:54:06;;;;;;;36.53;27.93;;;;;;;9.36;100.00;98548.66;4975959;28;20204;-71
2022/05/01 01:56:32;;;;;;;31.90;26.07;;;;;;;9.33;100.00;98551.69;4975296;28;20664;-71
2022/05/01 01:58:58;;;;;;;32.07;26.77;;;;;;;9.35;99.57;98543.53;4975618;28;20260;-71
2022/05/01 02:01:25;;;;;;;33.67;27.33;;;;;;;9.33;98.84;98551.69;4974245;28;20275;-71
2022/05/01 02:03:51;;;;;;;34.93;27.70;;;;;;;9.27;100.00;98551.66;4973670;28;20219;-71
2022/05/01 02:06:18;;;;;;;34.57;27.37;;;;;;;9.32;100.00;98552.72;4975748;28;20597;-70
2022/05/01 02:08:47;;;;;;;33.03;27.43;;;;;;;9.30;100.00;98543.31;4974460;28;20228;-71
2022/05/01 02:11:13;;;;;;;33.67;27.40;;;;;;;9.29;99.21;98541.69;4974955;28;20204;-71
2022/05/01 02:13:40;;;;;;;36.40;27.70;;;;;;;9.26;98.88;98542.06;4974718;28;20204;-70
2022/05/01 02:16:06;;;;;;;31.63;26.87;;;;;;;9.27;99.83;98543.72;4975109;28;20223;-71
2022/05/01 02:18:33;;;;;;;34.33;27.53;;;;;;;9.36;99.43;98538.03;4974179;28;20708;-71
2022/05/01 02:23:43;;;;;;;29.37;26.20;;;;;;;9.32;99.63;98530.69;4975532;28;20230;-71
2022/05/01 02:26:09;;;;;;;31.73;26.33;;;;;;;9.29;98.89;98525.78;4974888;28;20214;-71
2022/05/01 02:28:36;;;;;;;34.10;27.50;;;;;;;9.24;98.56;98530.84;4974333;28;20256;-70
2022/05/01 02:31:02;;;;;;;34.63;26.73;;;;;;;9.31;98.90;98539.66;4975351;28;20204;-71
2022/05/01 02:33:29;;;;;;;32.40;27.07;;;;;;;9.18;98.28;98523.66;4974571;28;20213;-71
2022/05/01 02:35:55;;;;;;;33.07;27.43;;;;;;;9.24;100.00;98523.69;4973260;28;20683;-71
2022/05/01 02:38:23;;;;;;;32.63;25.87;;;;;;;9.25;98.96;98524.53;4974149;28;20224;-71
2022/05/01 02:40:49;;;;;;;37.23;27.37;;;;;;;9.21;98.55;98520.63;4974661;28;20227;-70
2022/05/01 02:43:15;;;;;;;34.77;27.50;;;;;;;9.30;98.28;98522.09;4974526;28;20215;-71
2022/05/01 02:45:42;;;;;;;34.03;28.17;;;;;;;9.22;98.46;98522.25;4974413;28;20219;-71
2022/05/01 02:48:08;;;;;;;33.30;27.90;;;;;;;9.17;98.69;98522.03;4974479;28;20236;-70
2022/05/01 02:50:36;;;;;;;36.77;27.63;;;;;;;9.15;99.77;98516.94;4974052;28;20200;-71
2022/05/01 02:53:04;;;;;;;36.63;28.57;;;;;;;9.13;99.10;98520.81;4972344;28;20544;-71
2022/05/01 02:55:30;;;;;;;39.53;28.70;;;;;;;9.07;100.00;98513.66;4974900;28;20299;-70
2022/05/01 02:57:57;;;;;;;38.93;28.97;;;;;;;9.10;98.91;98516.72;4973389;28;20231;-70
2022/05/01 03:00:23;;;;;;;33.63;27.47;;;;;;;9.27;97.94;98517.19;4973574;28;20236;-71
2022/05/01 03:02:50;;;;;;;35.17;27.53;;;;;;;9.20;98.10;98514.53;4974835;28;20215;-70
2022/05/01 03:05:17;;;;;;;37.77;29.60;;;;;;;9.14;99.38;98511.84;4974776;28;20267;-71
2022/05/01 03:07:44;;;;;;;37.43;28.60;;;;;;;9.06;99.78;98512.81;4974712;28;20239;-70
2022/05/01 03:10:11;;;;;;;36.93;28.93;;;;;;;9.08;100.00;98515.28;4972687;28;20200;-70
2022/05/01 03:12:38;;;;;;;39.60;29.60;;;;;;;9.04;100.00;98516.69;4974763;28;20258;-71
2022/05/01 03:15:09;;;;;;;36.57;28.57;;;;;;;9.05;100.00;98511.19;4973924;28;20208;-70
2022/05/01 03:23:00;;;;;;;38.70;29.20;;;;;;;9.04;99.53;98506.91;4973702;28;20599;-71
2022/05/01 03:25:27;;;;;;;37.00;28.60;;;;;;;9.18;100.00;98505.94;4972857;28;20200;-70
2022/05/01 03:27:54;;;;;;;38.60;29.60;;;;;;;9.21;99.13;98510.03;4974798;28;20250;-70
2022/05/01 03:30:21;;;;;;;37.77;30.10;;;;;;;9.28;98.40;98510.88;4978630;28;20207;-70
2022/05/01 03:32:48;;;;;;;38.43;28.93;;;;;;;9.07;100.00;98503.03;4976566;28;20678;-70
2022/05/01 03:35:15;;;;;;;43.23;30.47;;;;;;;9.00;100.00;98504.88;4978182;28;20220;-71
2022/05/01 03:37:42;;;;;;;41.53;30.70;;;;;;;9.00;100.00;98510.16;4977434;28;20228;-70
2022/05/01 03:40:12;;;;;;;39.93;30.20;;;;;;;9.03;100.00;98507.09;4978029;28;20227;-70
2022/05/01 03:42:38;;;;;;;37.27;29.00;;;;;;;9.00;100.00;98515.47;4974099;28;20212;-71
2022/05/01 03:45:05;;;;;;;39.10;29.60;;;;;;;9.00;100.00;98510.16;4978236;28;20219;-71
2022/05/01 03:47:32;;;;;;;34.27;29.23;;;;;;;9.21;98.38;98507.38;4977034;28;20236;-71
2022/05/01 03:49:59;;;;;;;35.27;27.87;;;;;;;9.15;99.50;98508.19;4978156;28;20208;-71
2022/05/01 03:52:25;;;;;;;36.90;28.53;;;;;;;9.01;100.00;98511.78;4977132;28;20208;-71
2022/05/01 03:54:52;;;;;;;37.33;30.37;;;;;;;9.00;100.00;98507.50;4977828;28;20218;-71
2022/05/01 03:57:18;;;;;;;36.10;28.53;;;;;;;9.07;99.61;98511.81;4977145;28;20232;-71
2022/05/01 03:59:46;;;;;;;38.03;28.30;;;;;;;8.99;100.00;98508.50;4976326;28;20216;-71
2022/05/01 04:02:15;;;;;;;36.07;28.87;;;;;;;9.00;100.00;98510.97;4977104;28;20593;-70
2022/05/01 04:04:43;;;;;;;37.03;29.27;;;;;;;8.94;100.00;98511.75;4977156;28;20235;-70
2022/05/01 04:07:09;;;;;;;37.73;29.90;;;;;;;8.86;100.00;98519.88;4976970;28;20232;-71
2022/05/01 04:09:36;;;;;;;34.60;28.20;;;;;;;9.01;100.00;98512.59;4976872;28;20208;-70
2022/05/01 04:12:04;;;;;;;35.43;28.40;;;;;;;8.95;100.00;98508.09;4977489;28;20649;-71
2022/05/01 04:14:32;;;;;;;33.57;28.73;;;;;;;8.95;100.00;98517.88;4976857;28;20232;-71
2022/05/01 04:16:58;;;;;;;38.77;28.87;;;;;;;8.95;100.00;98508.09;4976124;28;20243;-71
2022/05/01 04:19:25;;;;;;;34.50;28.83;;;;;;;8.99;100.00;98511.16;4976706;28;20667;-70
2022/05/01 04:21:51;;;;;;;37.73;28.80;;;;;;;8.98;100.00;98513.00;4977593;28;20228;-70
2022/05/01 04:24:18;;;;;;;34.43;28.63;;;;;;;9.02;100.00;98513.44;4976396;28;20679;-71
2022/05/01 04:26:44;;;;;;;34.50;27.40;;;;;;;9.06;100.00;98504.06;4977218;28;20543;-70
2022/05/01 04:31:54;;;;;;;38.03;28.67;;;;;;;8.90;100.00;98509.69;4963197;28;20187;-71
2022/05/01 04:34:21;;;;;;;35.10;27.63;;;;;;;9.12;100.00;98508.56;4976482;28;20204;-71
2022/05/01 04:36:47;;;;;;;32.43;28.17;;;;;;;9.09;99.31;98514.28;4977327;28;20219;-70
2022/05/01 04:39:13;;;;;;;34.90;28.37;;;;;;;9.07;99.75;98517.13;4974410;28;20211;-71
2022/05/01 04:41:40;;;;;;;34.80;27.90;;;;;;;9.04;100.00;98514.84;4976904;28;20220;-70
2022/05/01 04:44:06;;;;;;;35.03;28.07;;;;;;;9.07;100.00;98525.09;4975913;28;20212;-71
2022/05/01 04:46:33;;;;;;;35.63;29.40;;;;;;;8.97;100.00;98521.16;4976273;28;20211;-70
2022/05/01 04:48:59;;;;;;;33.33;27.13;;;;;;;9.04;100.00;98527.28;4975750;28;20236;-70
2022/05/01 04:51:26;;;;;;;31.43;27.53;;;;;;;9.18;100.00;98526.31;4977090;28;20220;-70
2022/05/01 04:53:52;;;;;;;35.00;28.27;;;;;;;9.12;100.00;98522.66;4975770;28;20295;-70
2022/05/01 04:59:03;;;;;;;31.63;26.80;;;;;;;9.19;100.00;98530.63;4975526;28;20222;-70
2022/05/01 05:01:32;;;;;;;34.20;28.50;;;;;;;9.25;99.71;98535.97;4976825;28;20567;-70
2022/05/01 05:03:59;;;;;;;35.67;27.93;;;;;;;9.21;99.73;98539.19;4974932;28;20211;-70
2022/05/01 05:06:25;;;;;;;30.37;26.77;;;;;;;9.28;99.87;98537.41;4976658;28;20223;-71
2022/05/01 05:11:36;;;;;;;32.40;26.93;;;;;;;9.21;100.00;98544.50;4976676;28;20254;-71
2022/05/01 05:14:04;;;;;;;32.07;26.10;;;;;;;9.34;98.05;98544.56;4975589;28;20663;-70
2022/05/01 05:16:31;;;;;;;33.70;26.53;;;;;;;9.42;97.66;98547.03;4976692;28;20216;-71
2022/05/01 05:18:57;;;;;;;29.80;25.27;;;;;;;9.49;96.40;98550.53;4974837;28;20231;-70
2022/05/01 05:21:23;;;;;;;31.93;26.47;;;;;;;9.31;97.41;98544.94;4976584;28;20232;-71
2022/05/01 05:23:50;;;;;;;31.10;25.43;;;;;;;9.28;98.83;98550.66;4975651;28;20204;-71
2022/05/01 05:26:16;;;;;;;31.80;26.87;;;;;;;9.21;100.00;98550.66;4976563;28;20204;-70
2022/05/01 05:28:43;;;;;;;36.60;27.30;;;;;;;9.18;100.00;98550.19;4974675;28;20232;-70
2022/05/01 05:31:10;;;;;;;31.67;26.63;;;;;;;9.18;99.09;98561.63;4975199;28;20214;-71
2022/05/01 05:33:36;;;;;;;32.13;26.00;;;;;;;9.26;98.67;98561.47;4974978;28;20266;-71
2022/05/01 05:36:03;;;;;;;33.13;26.27;;;;;;;9.33;98.08;98561.50;4976010;28;20211;-71
2022/05/01 05:38:29;;;;;;;29.90;25.23;;;;;;;9.36;97.02;98561.91;4975295;28;20227;-70
2022/05/01 05:40:55;;;;;;;29.87;26.10;;;;;;;9.36;98.33;98569.88;4975308;28;20230;-70
2022/05/01 05:43:22;;;;;;;31.37;25.57;;;;;;;9.39;97.95;98564.19;4975926;28;20687;-70
2022/05/01 05:45:49;;;;;;;30.87;25.63;;;;;;;9.33;98.04;98566.81;4974985;28;20212;-70
2022/05/01 05:48:15;;;;;;;30.47;26.80;;;;;;;9.19;97.59;98559.81;4973933;28;20302;-70
2022/05/01 05:50:41;;;;;;;29.63;25.33;;;;;;;9.22;97.33;98568.19;4975780;28;20208;-70
2022/05/01 05:53:08;;;;;;;27.53;24.30;;;;;;;9.21;98.10;98563.06;4975815;28;20208;-70
2022/05/01 05:55:35;;;;;;;33.67;25.63;;;;;;;9.23;97.62;98561.06;4975455;28;20216;-70
2022/05/01 05:58:01;;;;;;;29.97;25.40;;;;;;;9.20;97.91;98567.59;4975881;28;20230;-70
2022/05/01 06:00:28;;;;;;;29.97;25.60;;;;;;;9.29;99.05;98566.41;4974935;28;20207;-71
2022/05/01 06:02:54;;;;;;;30.77;24.60;;;;;;;9.35;99.01;98562.09;4975447;28;20218;-71
2022/05/01 06:05:20;;;;;;;26.50;23.70;;;;;;;9.38;98.54;98561.72;4971945;28;20574;-70
2022/05/01 06:07:47;;;;;;;29.37;25.90;;;;;;;9.33;96.57;98564.16;4973970;28;20569;-71
2022/05/01 06:10:13;;;;;;;28.27;24.63;;;;;;;9.32;96.81;98567.84;4974727;28;20211;-71
2022/05/01 06:12:43;;;;;;;29.40;24.90;;;;;;;9.31;96.90;98566.19;4975548;28;20200;-71
2022/05/01 06:15:10;;;;;;;28.90;25.23;;;;;;;9.34;96.48;98560.47;4974650;28;20204;-71
2022/05/01 06:17:37;;;;;;;27.83;24.63;;;;;;;9.45;98.33;98566.03;4975539;28;20224;-71
2022/05/01 06:20:04;;;;;;;28.63;24.40;;;;;;;9.54;98.78;98567.50;4974311;28;20587;-71
2022/05/01 06:22:31;;;;;;;26.10;23.27;;;;;;;9.71;97.22;98566.13;4972828;28;20227;-71
2022/05/01 06:24:57;;;;;;;30.23;24.93;;;;;;;9.72;96.26;98569.56;4973319;28;20620;-70
2022/05/01 06:27:23;;;;;;;26.53;23.87;;;;;;;9.84;94.78;98573.28;4975392;28;20228;-70
2022/05/01 06:29:50;;;;;;;28.27;24.10;;;;;;;9.89;97.84;98569.00;4974132;28;20679;-70
2022/05/01 06:32:17;;;;;;;25.70;22.90;;;;;;;10.04;94.04;98576.78;4974971;28;20203;-70
2022/05/01 06:34:45;;;;;;;27.37;24.50;;;;;;;9.82;93.12;98572.69;4974370;28;20258;-70
2022/05/01 06:37:11;;;;;;;27.77;23.70;;;;;;;9.85;92.67;98574.91;4975154;28;20232;-71
2022/05/01 06:39:38;;;;;;;25.90;22.93;;;;;;;9.90;94.45;98572.47;4973333;28;20212;-70
2022/05/01 06:42:05;;;;;;;28.13;23.43;;;;;;;9.97;96.16;98568.00;4971775;28;20319;-70
2022/05/01 06:44:32;;;;;;;25.73;22.93;;;;;;;10.00;94.08;98562.28;4974810;28;20215;-71
2022/05/01 06:46:58;;;;;;;26.40;23.80;;;;;;;10.09;94.91;98572.53;4973775;28;20218;-71
2022/05/01 06:49:24;;;;;;;26.27;23.43;;;;;;;9.98;92.92;98570.44;4974186;28;20211;-71
2022/05/01 06:51:51;;;;;;;25.90;22.00;;;;;;;9.97;93.16;98571.47;4974144;28;20200;-71
2022/05/01 06:54:17;;;;;;;26.87;23.33;;;;;;;10.17;92.89;98566.19;4974692;28;20694;-71
2022/05/01 06:56:44;;;;;;;27.10;22.13;;;;;;;10.19;92.30;98567.63;4973383;28;20208;-71
2022/05/01 06:59:11;;;;;;;24.43;21.90;;;;;;;10.27;91.37;98571.94;4974962;28;20342;-71
2022/05/01 07:01:37;;;;;;;25.33;22.60;;;;;;;10.14;90.70;98571.94;4971855;28;20587;-71
2022/05/01 07:04:04;;;;;;;27.97;23.60;;;;;;;10.11;91.11;98573.16;4971903;28;20674;-71
2022/05/01 07:06:30;;;;;;;26.83;23.97;;;;;;;10.30;91.40;98574.16;4974593;28;20204;-71
2022/05/01 07:08:57;;;;;;;25.90;22.90;;;;;;;10.23;90.91;98570.72;4974284;28;20593;-71
2022/05/01 07:11:23;;;;;;;25.40;22.40;;;;;;;10.18;90.80;98570.50;4973450;28;20208;-71
2022/05/01 07:13:49;;;;;;;26.33;23.50;;;;;;;10.31;90.90;98576.63;4973878;28;20208;-71
2022/05/01 07:16:19;;;;;;;26.27;23.53;;;;;;;10.46;90.73;98579.88;4974334;28;20219;-71
2022/05/01 07:18:46;;;;;;;24.93;22.23;;;;;;;10.52;90.43;98580.91;4973186;28;20251;-71
2022/05/01 07:21:12;;;;;;;24.10;21.53;;;;;;;10.57;89.36;98586.44;4974380;28;20231;-70
2022/05/01 07:23:38;;;;;;;25.93;22.70;;;;;;;10.49;88.51;98584.81;4973652;28;20219;-71
2022/05/01 07:26:05;;;;;;;25.17;22.67;;;;;;;10.49;89.80;98584.81;4974668;28;20219;-71
2022/05/01 07:28:32;;;;;;;23.90;21.40;;;;;;;10.41;89.15;98581.53;4972083;28;20228;-70
2022/05/01 07:30:59;;;;;;;24.63;21.73;;;;;;;10.49;90.63;98581.31;4973214;28;20303;-70
2022/05/01 07:33:26;;;;;;;24.27;21.70;;;;;;;10.52;90.78;98589.72;4974075;28;20215;-70
2022/05/01 07:35:52;;;;;;;22.87;20.57;;;;;;;10.58;89.62;98588.06;4973630;28;20208;-70
2022/05/01 07:38:19;;;;;;;24.17;21.60;;;;;;;10.56;88.27;98584.81;4972599;28;20232;-71
2022/05/01 07:40:45;;;;;;;23.83;21.53;;;;;;;10.42;88.07;98581.31;4973334;28;20218;-71
2022/05/01 07:43:12;;;;;;;23.43;20.90;;;;;;;10.50;88.70;98577.66;4974415;28;20244;-71
2022/05/01 07:45:38;;;;;;;23.13;20.70;;;;;;;10.73;87.07;98583.34;4973482;28;20219;-70
2022/05/01 07:48:05;;;;;;;24.40;20.50;;;;;;;10.72;87.31;98571.88;4973906;28;20745;-70
2022/05/01 07:50:31;;;;;;;24.37;21.00;;;;;;;10.58;86.84;98574.75;4967080;28;20201;-71
2022/05/01 07:52:57;;;;;;;25.27;20.23;;;;;;;10.70;87.77;98573.13;4962676;28;20201;-71
2022/05/01 07:55:24;;;;;;;23.63;21.17;;;;;;;10.59;87.26;98577.22;4966670;28;20211;-71
2022/05/01 07:57:50;;;;;;;23.63;21.13;;;;;;;10.64;87.40;98582.72;4971316;28;20224;-71
2022/05/01 08:00:17;;;;;;;25.53;21.60;;;;;;;10.59;87.86;98573.75;4966669;28;20299;-71
2022/05/01 08:05:29;;;;;;;22.37;20.00;;;;;;;10.77;88.72;98568.63;4961752;28;20318;-71
2022/05/01 08:07:57;;;;;;;22.17;19.83;;;;;;;10.90;88.82;98582.69;4963359;28;20224;-71
2022/05/01 08:10:23;;;;;;;22.43;20.03;;;;;;;10.90;86.36;98571.22;4964838;28;20204;-71
2022/05/01 08:12:50;;;;;;;23.20;20.50;;;;;;;10.79;86.18;98582.53;4960138;28;20200;-71
2022/05/01 08:15:18;;;;;;;22.67;19.00;;;;;;;10.91;86.90;98573.69;4966248;28;20201;-71
2022/05/01 08:17:45;;;;;;;21.97;19.77;;;;;;;11.42;83.55;98581.72;4973969;28;20220;-71
2022/05/01 08:23:07;;;;;;;24.10;20.43;;;;;;;11.08;85.16;98580.19;4977469;28;20335;-71
2022/05/01 08:25:35;;;;;;;22.83;19.47;;;;;;;11.21;85.29;98579.34;4976643;28;20251;-72
2022/05/01 08:28:02;;;;;;;20.93;18.80;;;;;;;11.42;83.34;98576.41;4977183;28;20231;-71
2022/05/01 08:30:29;;;;;;;21.43;19.23;;;;;;;11.24;83.21;98578.91;4976606;28;20219;-70
2022/05/01 08:32:56;;;;;;;21.23;19.03;;;;;;;11.36;84.02;98577.25;4977476;28;20211;-71
2022/05/01 08:35:23;;;;;;;21.40;19.10;;;;;;;11.74;80.29;98575.44;4976844;28;20211;-71
2022/05/01 08:37:49;;;;;;;20.60;17.97;;;;;;;11.89;79.27;98581.28;4977333;28;20224;-70
2022/05/01 08:40:16;;;;;;;20.67;18.53;;;;;;;11.62;80.51;98576.34;4976282;28;20220;-71
2022/05/01 08:42:44;;;;;;;20.03;18.03;;;;;;;12.07;78.80;98578.72;4977123;28;20235;-70
2022/05/01 08:45:13;;;;;;;19.83;17.73;;;;;;;12.13;78.41;98572.53;4975986;28;20295;-70
2022/05/01 08:48:09;;;;;;;20.93;18.83;;;;;;;12.08;77.41;98572.34;4976933;28;20243;-71
2022/05/01 08:50:38;;;;;;;20.53;18.37;;;;;;;11.92;77.26;98570.22;4976275;28;20212;-71
2022/05/01 08:53:06;;;;;;;18.40;16.40;;;;;;;12.16;76.52;98574.75;4975908;28;20563;-71
2022/05/01 08:55:33;;;;;;;19.87;16.17;;;;;;;12.77;73.05;98562.34;4975854;28;20663;-71
2022/05/01 08:58:00;;;;;;;17.00;14.87;;;;;;;12.69;73.77;98559.13;4975804;28;20238;-70
2022/05/01 09:00:27;;;;;;;17.13;15.53;;;;;;;12.53;74.84;98568.50;4975767;28;20216;-71
2022/05/01 09:02:54;;;;;;;16.30;14.80;;;;;;;12.56;72.90;98565.41;4976452;28;20230;-71
2022/05/01 09:05:20;;;;;;;16.17;14.50;;;;;;;12.80;71.53;98561.09;4975762;28;20217;-71
2022/05/01 09:07:47;;;;;;;15.97;14.37;;;;;;;12.33;71.46;98570.53;4976487;28;20241;-71
2022/05/01 09:10:15;;;;;;;15.50;14.00;;;;;;;12.34;72.31;98560.69;4976094;28;20211;-71
2022/05/01 09:12:50;;;;;;;15.53;14.03;;;;;;;12.31;72.61;98556.59;4976181;28;20671;-71
2022/05/01 09:15:29;;;;;;;16.23;14.63;;;;;;;12.45;71.55;98558.13;4976696;28;20206;-70
2022/05/01 09:18:09;;;;;;;15.60;13.97;;;;;;;12.42;72.16;98557.72;4976685;28;20253;-71
2022/05/01 09:20:38;;;;;;;14.83;13.40;;;;;;;12.33;71.95;98565.19;4975655;28;20562;-71
2022/05/01 09:23:06;;;;;;;17.17;15.37;;;;;;;12.88;74.39;98553.59;4976137;28;20253;-71
2022/05/01 09:25:33;;;;;;;16.17;14.57;;;;;;;12.72;73.99;98554.19;4974822;28;20200;-71
2022/05/01 09:28:18;;;;;;;15.60;14.10;;;;;;;12.45;74.38;98563.47;4976018;28;20242;-71
2022/05/01 09:30:46;;;;;;;15.67;14.07;;;;;;;12.47;74.73;98563.22;4975414;28;20200;-71
2022/05/01 09:33:19;;;;;;;15.87;14.37;;;;;;;12.53;78.56;98565.84;4976410;28;20207;-71
2022/05/01 09:35:46;;;;;;;17.73;15.77;;;;;;;12.65;76.17;98553.41;4975319;28;20254;-70
2022/05/01 09:38:18;;;;;;;15.53;14.13;;;;;;;13.30;69.50;98557.28;4974766;28;20715;-70
2022/05/01 09:40:49;;;;;;;17.10;15.33;;;;;;;13.10;71.17;98557.50;4974905;28;20235;-71
2022/05/01 09:43:47;;;;;;;16.20;14.63;;;;;;;12.92;71.82;98553.97;4975753;28;20237;-71
2022/05/01 09:46:22;;;;;;;15.63;14.20;;;;;;;13.15;69.61;98554.19;4975018;28;20208;-70
2022/05/01 09:49:09;;;;;;;14.87;13.33;;;;;;;13.04;69.12;98562.91;4975616;28;20239;-70
2022/05/01 09:51:42;;;;;;;13.20;11.80;;;;;;;12.98;69.35;98566.47;4974887;28;20298;-70
2022/05/01 09:54:09;;;;;;;15.23;12.63;;;;;;;12.99;70.47;98568.09;4975877;28;20211;-70
2022/05/01 09:56:57;;;;;;;15.77;14.07;;;;;;;13.01;68.54;98574.84;4974889;28;20275;-71
2022/05/01 09:59:25;;;;;;;14.30;13.00;;;;;;;13.14;69.79;98563.19;4975469;28;20208;-70
2022/05/01 10:02:02;;;;;;;15.13;13.63;;;;;;;13.34;68.49;98558.47;4974543;28;20235;-70
2022/05/01 10:04:30;;;;;;;13.80;12.50;;;;;;;13.22;68.13;98563.72;4975811;28;20663;-71
2022/05/01 10:06:58;;;;;;;14.10;12.77;;;;;;;13.41;67.16;98559.19;4974527;28;20215;-71
2022/05/01 10:09:29;;;;;;;14.30;12.80;;;;;;;13.49;66.78;98551.69;4975513;28;20306;-70
2022/05/01 10:11:58;;;;;;;13.17;11.77;;;;;;;13.65;66.78;98552.94;4974515;28;20200;-70
2022/05/01 10:14:26;;;;;;;13.17;11.97;;;;;;;13.92;64.33;98551.47;4974282;28;20667;-71
2022/05/01 10:16:54;;;;;;;12.23;11.07;;;;;;;14.27;62.54;98553.25;4975054;28;20239;-70
2022/05/01 10:19:23;;;;;;;12.27;11.07;;;;;;;14.11;60.89;98540.50;4974139;28;20299;-70
2022/05/01 10:21:52;;;;;;;11.97;10.87;;;;;;;13.52;61.94;98543.22;4975190;28;20231;-70
2022/05/01 10:24:20;;;;;;;12.57;11.40;;;;;;;13.70;63.22;98548.50;4974177;28;20250;-70
2022/05/01 10:27:29;;;;;;;12.43;11.17;;;;;;;14.32;61.82;98542.66;4975171;28;20212;-70
2022/05/01 10:32:51;;;;;;;12.77;11.67;;;;;;;15.21;60.39;98542.28;4975281;28;20254;-70
2022/05/01 10:35:34;;;;;;;13.43;12.03;;;;;;;15.67;57.83;98537.63;4974208;28;20211;-70
2022/05/01 10:38:55;;;;;;;12.23;11.03;;;;;;;15.14;59.02;98530.88;4974005;28;20227;-70
2022/05/01 10:41:22;;;;;;;12.93;11.67;;;;;;;14.57;58.89;98527.19;4957893;28;20230;-70
2022/05/01 10:43:57;;;;;;;12.63;11.33;;;;;;;13.86;59.44;98523.84;4974973;28;20239;-70
2022/05/01 10:46:23;;;;;;;11.17;10.07;;;;;;;14.47;58.71;98529.66;4972819;28;20677;-71
2022/05/01 10:48:50;;;;;;;11.70;10.60;;;;;;;14.19;58.51;98523.31;4974391;28;20318;-70
2022/05/01 10:51:29;;;;;;;11.70;10.60;;;;;;;14.43;60.43;98525.00;4974930;28;20208;-70
2022/05/01 10:54:11;;;;;;;13.57;11.73;;;;;;;14.21;60.03;98522.09;4972925;28;20230;-70
2022/05/01 10:56:39;;;;;;;12.73;11.43;;;;;;;13.51;61.37;98516.72;4974619;28;20698;-70
2022/05/01 10:59:30;;;;;;;14.00;12.60;;;;;;;13.06;61.19;98510.94;4974124;28;20210;-70
2022/05/01 11:01:59;;;;;;;11.83;10.63;;;;;;;13.50;62.20;98510.56;4968528;28;20303;-70
2022/05/01 11:04:27;;;;;;;11.77;10.50;;;;;;;13.74;61.40;98506.94;4974173;28;20702;-70
2022/05/01 11:06:57;;;;;;;10.80;9.80;;;;;;;13.99;59.48;98510.28;4973511;28;20266;-70
2022/05/01 11:09:26;;;;;;;10.87;9.77;;;;;;;14.04;58.36;98509.56;4974667;28;20215;-70
2022/05/01 11:11:58;;;;;;;11.43;10.23;;;;;;;14.33;58.24;98506.84;4974599;28;20212;-70
2022/05/01 11:15:04;;;;;;;10.50;9.50;;;;;;;14.17;57.54;98501.34;4974525;28;20203;-70
2022/05/01 11:17:37;;;;;;;10.53;9.20;;;;;;;14.26;58.72;98505.34;4965863;28;20612;-70
2022/05/01 11:20:09;;;;;;;11.63;10.53;;;;;;;14.59;58.21;98494.88;4973977;28;20258;-70
2022/05/01 11:22:35;;;;;;;11.43;10.33;;;;;;;14.67;55.87;98508.72;4974262;28;20641;-70
2022/05/01 11:25:03;;;;;;;11.00;9.90;;;;;;;14.75;56.81;98499.53;4972641;28;20208;-70
2022/05/01 11:27:47;;;;;;;10.17;8.93;;;;;;;14.60;57.88;98500.00;4974005;28;20699;-70
2022/05/01 11:30:20;;;;;;;11.20;10.10;;;;;;;14.66;56.19;98499.03;4973443;28;20713;-70
2022/05/01 11:32:51;;;;;;;11.73;10.50;;;;;;;14.75;55.13;98499.53;4974517;28;20196;-70
2022/05/01 11:35:18;;;;;;;11.80;10.60;;;;;;;14.08;56.74;98498.19;4973197;28;20255;-70
2022/05/01 11:38:00;;;;;;;10.87;9.87;;;;;;;14.47;58.65;98489.53;4972325;28;21210;-70
2022/05/01 11:40:29;;;;;;;11.17;10.17;;;;;;;14.50;57.65;98491.75;4974284;28;20315;-70
2022/05/01 11:43:20;;;;;;;11.27;10.13;;;;;;;14.58;57.80;98488.72;4972843;28;20228;-71
2022/05/01 11:45:48;;;;;;;9.77;8.87;;;;;;;14.73;57.69;98496.25;4973955;28;20212;-70
2022/05/01 11:48:16;;;;;;;11.50;9.83;;;;;;;14.73;59.08;98493.56;4973176;28;20235;-70
2022/05/01 11:50:44;;;;;;;12.63;11.43;;;;;;;14.87;59.14;98489.59;4977944;28;20214;-70
2022/05/01 11:53:27;;;;;;;11.17;9.90;;;;;;;15.36;58.23;98487.19;4976358;28;20578;-70
2022/05/01 12:04:34;;;;;;;12.03;10.83;;;;;;;14.85;57.63;98483.66;4976612;28;20199;-71